Gill, Texas
Current Conditions -  °F | °C
As of 2:15 AM on Friday 24 Oct 2014 (Local Time) from KASL Reporting Station
Clear Clear  
Wind Chill: 53°   Ceiling: Unl
Heat Index: 53°   Visibility: 10mi
Dew Point: 51°   Wind: 0mph
Humidity: 92%   Direction: NA
Pressure: 30.16"   Gusts: NA
Location:  32.4675°N, 94.3321°W
Report Text: KASL 240715Z AUTO 00000KT 10SM CLR 12/11 A3016 RMK AO1 T01180105
Loading
Personal Weather Stations






























Interactive Weather Map
Tropical Storm Tracking
New forecast layout! Learn more

10-Day Weather Forecast

Advertisements
Track Severe Weather on mobile